createdAt,value
2019-03-20T00:00:45.407Z,97816.54
2019-03-20T00:03:18.826Z,97820.10
2019-03-20T00:05:52.755Z,97818.98
2019-03-20T00:08:24.654Z,97824.27
2019-03-20T00:10:58.070Z,97827.97
2019-03-20T00:13:30.989Z,97818.91
2019-03-20T00:16:03.381Z,97816.34
2019-03-20T00:18:35.501Z,97820.95
2019-03-20T00:21:10.124Z,97821.39
2019-03-20T00:23:42.039Z,97819.78
2019-03-20T00:26:16.146Z,97827.05
2019-03-20T00:28:48.001Z,97815.63
2019-03-20T00:31:19.857Z,97825.13
2019-03-20T00:33:51.753Z,97820.33
2019-03-20T00:36:23.617Z,97827.91
2019-03-20T00:38:57.109Z,97821.72
2019-03-20T00:41:28.833Z,97823.36
2019-03-20T00:44:01.396Z,97830.34
2019-03-20T00:46:36.420Z,97828.15
2019-03-20T00:49:09.315Z,97821.55
2019-03-20T00:51:41.336Z,97811.56
2019-03-20T00:54:13.174Z,97811.43
2019-03-20T00:56:44.958Z,97812.33
2019-03-20T00:59:16.790Z,97812.34
2019-03-20T01:01:49.100Z,97807.48
2019-03-20T01:04:21.448Z,97816.56
2019-03-20T01:06:53.745Z,97815.14
2019-03-20T01:09:26.220Z,97819.30
2019-03-20T01:12:00.264Z,97821.28
2019-03-20T01:14:32.112Z,97811.80
2019-03-20T01:17:05.425Z,97814.97
2019-03-20T01:19:37.433Z,97820.52
2019-03-20T01:22:09.259Z,97819.16
2019-03-20T01:24:41.601Z,97823.16
2019-03-20T01:27:13.402Z,97821.20
2019-03-20T01:29:52.763Z,97823.16
2019-03-20T01:32:24.745Z,97829.52
2019-03-20T01:34:57.215Z,97833.36
2019-03-20T01:37:29.096Z,97832.98
2019-03-20T01:40:00.828Z,97836.17
2019-03-20T01:42:34.042Z,97840.48
2019-03-20T01:45:07.548Z,97833.53
2019-03-20T01:47:39.618Z,97835.34
2019-03-20T01:50:11.649Z,97831.83
2019-03-20T01:52:43.870Z,97834.00
2019-03-20T01:55:17.222Z,97839.61
2019-03-20T01:57:50.270Z,97836.45
2019-03-20T02:00:22.301Z,97839.80
2019-03-20T02:02:54.118Z,97834.30
2019-03-20T02:05:35.069Z,97841.05
2019-03-20T02:07:59.638Z,97841.61
2019-03-20T02:10:31.731Z,97851.53
2019-03-20T02:13:04.896Z,97843.06
2019-03-20T02:15:39.446Z,97852.83
2019-03-20T02:18:10.279Z,97858.34
2019-03-20T02:20:42.243Z,97860.33
2019-03-20T02:23:13.882Z,97859.21
2019-03-20T02:25:46.194Z,97862.17
2019-03-20T02:28:17.819Z,97862.04
2019-03-20T02:30:49.734Z,97864.53
2019-03-20T02:33:22.800Z,97859.97
2019-03-20T02:35:55.901Z,97864.61
2019-03-20T02:38:29.074Z,97867.47
2019-03-20T02:41:00.888Z,97868.59
2019-03-20T02:43:33.935Z,97865.66
2019-03-20T02:46:07.122Z,97868.75
2019-03-20T02:48:37.893Z,97874.70
2019-03-20T02:51:11.589Z,97869.17
2019-03-20T02:53:43.262Z,97874.86
2019-03-20T02:56:18.613Z,97878.27
2019-03-20T02:58:50.480Z,97871.02
2019-03-20T03:01:22.887Z,97875.72
2019-03-20T03:03:56.602Z,97869.90
2019-03-20T03:06:28.801Z,97874.75
2019-03-20T03:09:00.615Z,97877.53
2019-03-20T03:11:33.439Z,97876.64
2019-03-20T03:14:05.479Z,97873.55
2019-03-20T03:16:37.226Z,97876.24
2019-03-20T03:19:09.542Z,97877.48
2019-03-20T03:21:41.835Z,97882.30
2019-03-20T03:24:13.663Z,97889.85
2019-03-20T03:26:49.128Z,97893.86
2019-03-20T03:29:22.232Z,97886.36
2019-03-20T03:31:54.142Z,97894.66
2019-03-20T03:34:28.958Z,97900.24
2019-03-20T03:37:00.424Z,97904.86
2019-03-20T03:39:32.276Z,97909.40
2019-03-20T03:42:05.430Z,97911.48
2019-03-20T03:44:37.995Z,97912.32
2019-03-20T03:47:10.449Z,97910.68
2019-03-20T03:49:42.860Z,97903.22
2019-03-20T03:52:14.885Z,97914.33
2019-03-20T03:54:46.694Z,97912.36
2019-03-20T03:57:19.087Z,97908.63
2019-03-20T03:59:50.939Z,97910.08
2019-03-20T04:02:23.069Z,97910.44
2019-03-20T04:04:57.289Z,97915.50
2019-03-20T04:07:29.072Z,97918.78
2019-03-20T04:10:00.816Z,97916.70
2019-03-20T04:12:34.997Z,97923.41
2019-03-20T04:15:06.965Z,97920.83
2019-03-20T04:17:38.832Z,97927.37
2019-03-20T04:20:12.373Z,97925.94
2019-03-20T04:22:44.901Z,97930.59
2019-03-20T04:25:16.889Z,97934.28
2019-03-20T04:27:48.603Z,97934.52
2019-03-20T04:30:21.865Z,97940.22
2019-03-20T04:32:53.917Z,97939.38
2019-03-20T04:35:25.610Z,97942.91
2019-03-20T04:37:57.529Z,97952.27
2019-03-20T04:40:29.494Z,97950.50
2019-03-20T04:43:01.468Z,97947.29
2019-03-20T04:45:32.183Z,97948.81
2019-03-20T04:48:04.028Z,97953.71
2019-03-20T04:50:35.813Z,97963.34
2019-03-20T04:53:07.515Z,97963.09
2019-03-20T04:55:39.203Z,97966.43
2019-03-20T04:58:11.104Z,97969.77
2019-03-20T05:00:42.790Z,97975.05
2019-03-20T05:03:14.554Z,97976.16
2019-03-20T05:05:46.376Z,97984.77
2019-03-20T05:08:18.179Z,97983.04
2019-03-20T05:10:49.885Z,97984.75
2019-03-20T05:13:21.627Z,97989.98
2019-03-20T05:15:54.645Z,97988.19
2019-03-20T05:20:57.071Z,97996.00
2019-03-20T05:23:28.885Z,98000.36
2019-03-20T05:26:00.695Z,98003.18
2019-03-20T05:28:32.443Z,98013.00
2019-03-20T05:31:04.144Z,98008.95
2019-03-20T05:33:35.950Z,98003.52
2019-03-20T05:36:07.722Z,98009.20
2019-03-20T05:38:40.833Z,98014.30
2019-03-20T05:41:12.661Z,98010.50
2019-03-20T05:43:44.512Z,98013.70
2019-03-20T05:46:18.999Z,98015.31
2019-03-20T05:48:50.757Z,98020.11
2019-03-20T05:51:22.960Z,98020.11
2019-03-20T05:53:54.885Z,98025.97
2019-03-20T05:56:26.707Z,98029.11
2019-03-20T05:58:58.560Z,98033.41
2019-03-20T06:01:30.429Z,98034.36
2019-03-20T06:04:02.280Z,98036.94
2019-03-20T06:06:34.084Z,98043.28
2019-03-20T06:09:07.554Z,98052.42
2019-03-20T06:11:39.241Z,98057.66
2019-03-20T06:14:12.229Z,98062.23
2019-03-20T06:16:44.639Z,98068.77
2019-03-20T06:19:16.970Z,98066.98
2019-03-20T06:21:48.798Z,98070.17
2019-03-20T06:24:21.499Z,98076.41
2019-03-20T06:26:53.944Z,98078.33
2019-03-20T06:29:32.027Z,98085.97
2019-03-20T06:32:04.809Z,98085.72
2019-03-20T06:34:36.775Z,98087.74
2019-03-20T06:37:08.812Z,98091.80
2019-03-20T06:39:40.583Z,98097.66
2019-03-20T06:42:12.474Z,98108.14
2019-03-20T06:44:44.301Z,98111.42
2019-03-20T06:47:16.510Z,98113.55
2019-03-20T06:49:48.407Z,98118.03
2019-03-20T06:54:50.865Z,98121.56
2019-03-20T06:57:22.875Z,98120.66
2019-03-20T07:00:37.926Z,98129.10
2019-03-20T07:03:13.583Z,98137.95
2019-03-20T07:06:17.412Z,98134.45
2019-03-20T07:08:57.499Z,98134.05
2019-03-20T07:11:28.557Z,98141.80
2019-03-20T07:14:00.461Z,98133.56
2019-03-20T07:16:32.780Z,98136.30
2019-03-20T07:19:05.148Z,98143.94
2019-03-20T07:21:42.769Z,98148.08
2019-03-20T07:24:18.841Z,98152.90
2019-03-20T07:26:51.553Z,98151.65
2019-03-20T07:29:26.298Z,98154.10
2019-03-20T07:31:58.426Z,98156.81
2019-03-20T07:34:34.131Z,98153.19
2019-03-20T07:37:06.318Z,98163.33
2019-03-20T07:39:39.591Z,98157.76
2019-03-20T07:42:11.472Z,98151.94
2019-03-20T07:44:43.484Z,98159.77
2019-03-20T07:47:15.261Z,98160.97
2019-03-20T07:49:48.601Z,98156.97
2019-03-20T07:52:20.349Z,98169.11
2019-03-20T07:54:52.149Z,98176.98
2019-03-20T07:57:25.515Z,98170.23
2019-03-20T07:59:57.713Z,98169.47
2019-03-20T08:02:32.555Z,98177.06
2019-03-20T08:05:06.345Z,98186.23
2019-03-20T08:07:38.351Z,98185.98
2019-03-20T08:10:12.570Z,98189.59
2019-03-20T08:12:45.817Z,98187.52
2019-03-20T08:15:19.030Z,98193.11
2019-03-20T08:17:51.012Z,98196.45
2019-03-20T08:20:22.974Z,98191.81
2019-03-20T08:22:55.351Z,98198.97
2019-03-20T08:25:27.275Z,98201.01
2019-03-20T08:27:59.150Z,98201.63
2019-03-20T08:30:31.104Z,98202.77
2019-03-20T08:33:04.939Z,98203.95
2019-03-20T08:35:43.812Z,98206.15
2019-03-20T08:38:18.464Z,98208.30
2019-03-20T08:40:51.536Z,98204.82
2019-03-20T08:43:23.495Z,98210.02
2019-03-20T08:45:55.621Z,98211.30
2019-03-20T08:48:27.493Z,98211.30
2019-03-20T08:50:59.475Z,98218.08
2019-03-20T08:53:31.841Z,98223.39
2019-03-20T08:56:03.822Z,98220.14
2019-03-20T08:58:36.017Z,98222.34
2019-03-20T09:01:09.785Z,98236.84
2019-03-20T09:03:42.839Z,98229.78
2019-03-20T09:06:18.619Z,98234.11
2019-03-20T09:08:50.549Z,98241.13
2019-03-20T09:11:22.349Z,98236.22
2019-03-20T09:13:54.264Z,98231.78
2019-03-20T09:16:27.785Z,98249.67
2019-03-20T09:18:59.823Z,98247.12
2019-03-20T09:21:33.187Z,98255.73
2019-03-20T09:24:07.021Z,98253.56
2019-03-20T09:26:42.766Z,98247.70
2019-03-20T09:29:18.756Z,98247.09
2019-03-20T09:31:50.228Z,98249.42
2019-03-20T09:34:22.285Z,98251.27
2019-03-20T09:36:54.096Z,98252.56
2019-03-20T09:39:25.881Z,98252.62
2019-03-20T09:41:57.758Z,98259.91
2019-03-20T09:44:30.702Z,98267.23
2019-03-20T09:47:02.697Z,98266.06
2019-03-20T09:49:36.020Z,98268.48
2019-03-20T09:52:07.948Z,98271.87
2019-03-20T09:54:39.797Z,98273.70
2019-03-20T09:57:11.757Z,98259.72
2019-03-20T10:00:05.777Z,98264.23
2019-03-20T10:02:42.849Z,98276.22
2019-03-20T10:05:19.545Z,98276.67
2019-03-20T10:07:57.731Z,98280.27
2019-03-20T10:10:36.531Z,98282.13
2019-03-20T10:13:11.198Z,98277.95
2019-03-20T10:15:42.973Z,98283.60
2019-03-20T10:18:16.040Z,98285.44
2019-03-20T10:20:47.920Z,98292.38
2019-03-20T10:23:18.864Z,98289.36
2019-03-20T10:25:51.908Z,98289.78
2019-03-20T10:28:23.686Z,98286.70
2019-03-20T10:30:55.522Z,98294.59
2019-03-20T10:33:27.292Z,98288.40
2019-03-20T10:35:59.207Z,98293.00
2019-03-20T10:38:33.285Z,98303.94
2019-03-20T10:41:06.652Z,98300.62
2019-03-20T10:43:39.813Z,98301.41
2019-03-20T10:46:14.758Z,98304.92
2019-03-20T10:48:46.753Z,98299.11
2019-03-20T10:51:20.100Z,98306.09
2019-03-20T10:53:52.021Z,98298.48
2019-03-20T10:56:23.910Z,98301.70
2019-03-20T10:58:56.035Z,98303.09
2019-03-20T11:01:27.979Z,98304.54
2019-03-20T11:03:59.863Z,98300.17
2019-03-20T11:06:31.731Z,98305.38
2019-03-20T11:09:03.820Z,98299.56
2019-03-20T11:11:38.971Z,98298.84
2019-03-20T11:14:10.946Z,98308.45
2019-03-20T11:16:44.515Z,98309.34
2019-03-20T11:19:16.565Z,98311.18
2019-03-20T11:21:49.667Z,98307.27
2019-03-20T11:24:22.105Z,98306.81
2019-03-20T11:26:53.932Z,98302.41
2019-03-20T11:29:26.830Z,98302.78
2019-03-20T11:31:58.744Z,98311.45
2019-03-20T11:34:30.517Z,98304.83
2019-03-20T11:37:03.559Z,98309.03
2019-03-20T11:39:35.545Z,98303.09
2019-03-20T11:42:07.470Z,98300.84
2019-03-20T11:44:39.180Z,98308.36
2019-03-20T11:47:13.324Z,98309.78
2019-03-20T11:49:48.293Z,98304.20
2019-03-20T11:52:20.239Z,98305.56
2019-03-20T11:54:52.143Z,98305.64
2019-03-20T11:57:24.032Z,98307.94
2019-03-20T11:59:57.331Z,98295.25
2019-03-20T12:02:29.722Z,98300.52
2019-03-20T12:05:02.343Z,98304.08
2019-03-20T12:07:34.240Z,98306.63
2019-03-20T12:10:08.061Z,98307.94
2019-03-20T12:12:43.381Z,98308.25
2019-03-20T12:15:17.089Z,98308.02
2019-03-20T12:17:50.682Z,98311.51
2019-03-20T12:20:24.090Z,98308.01
2019-03-20T12:22:57.725Z,98308.27
2019-03-20T12:25:31.272Z,98315.33
2019-03-20T12:28:03.219Z,98314.83
2019-03-20T12:30:38.276Z,98318.92
2019-03-20T12:33:10.187Z,98311.83
2019-03-20T12:35:40.782Z,98317.03
2019-03-20T12:38:14.710Z,98320.19
2019-03-20T12:40:46.403Z,98311.91
2019-03-20T12:43:19.127Z,98317.68
2019-03-20T12:45:53.551Z,98310.50
2019-03-20T12:48:25.447Z,98314.76
2019-03-20T12:50:57.838Z,98314.05
2019-03-20T12:53:32.018Z,98310.45
2019-03-20T12:56:04.180Z,98312.16
2019-03-20T12:58:38.799Z,98311.36
2019-03-20T13:01:10.572Z,98312.69
2019-03-20T13:03:42.556Z,98313.31
2019-03-20T13:06:14.431Z,98320.94
2019-03-20T13:08:46.784Z,98314.42
2019-03-20T13:11:20.025Z,98306.64
2019-03-20T13:13:53.282Z,98312.30
2019-03-20T13:16:26.294Z,98303.41
2019-03-20T13:19:01.063Z,98302.05
2019-03-20T13:21:33.035Z,98302.05
2019-03-20T13:24:05.756Z,98302.77
2019-03-20T13:26:37.773Z,98317.18
2019-03-20T13:29:09.596Z,98310.08
2019-03-20T13:31:42.703Z,98310.03
2019-03-20T13:34:14.463Z,98310.03
2019-03-20T13:36:49.433Z,98307.41
2019-03-20T13:39:32.176Z,98312.25
2019-03-20T13:42:10.737Z,98312.77
2019-03-20T13:44:44.153Z,98313.05
2019-03-20T13:47:16.615Z,98310.50
2019-03-20T13:49:48.669Z,98318.78
2019-03-20T13:52:20.568Z,98321.51
2019-03-20T13:54:52.481Z,98321.49
2019-03-20T13:57:24.568Z,98315.03
2019-03-20T13:59:56.491Z,98320.90
2019-03-20T14:02:28.489Z,98318.89
2019-03-20T14:05:00.509Z,98320.34
2019-03-20T14:07:32.467Z,98325.09
2019-03-20T14:10:05.190Z,98319.11
2019-03-20T14:12:37.446Z,98318.92
2019-03-20T14:15:11.746Z,98314.52
2019-03-20T14:17:43.705Z,98315.89
2019-03-20T14:20:19.026Z,98319.77
2019-03-20T14:22:52.562Z,98323.02
2019-03-20T14:25:24.693Z,98323.31
2019-03-20T14:27:58.431Z,98317.23
2019-03-20T14:30:30.325Z,98318.22
2019-03-20T14:33:02.164Z,98315.41
2019-03-20T14:35:33.994Z,98322.39
2019-03-20T14:38:05.840Z,98323.06
2019-03-20T14:40:37.874Z,98328.41
2019-03-20T14:43:09.754Z,98330.69
2019-03-20T14:45:41.834Z,98329.70
2019-03-20T14:48:14.313Z,98323.59
2019-03-20T14:50:50.185Z,98331.34
2019-03-20T14:53:23.182Z,98329.38
2019-03-20T14:55:56.242Z,98327.25
2019-03-20T14:58:28.207Z,98320.42
2019-03-20T15:01:01.726Z,98324.45
2019-03-20T15:03:34.955Z,98322.05
2019-03-20T15:06:07.033Z,98320.89
2019-03-20T15:08:39.117Z,98327.48
2019-03-20T15:11:11.678Z,98337.06
2019-03-20T15:13:46.736Z,98333.36
2019-03-20T15:16:22.987Z,98343.16
2019-03-20T15:18:57.979Z,98344.03
2019-03-20T15:21:31.122Z,98345.82
2019-03-20T15:24:03.131Z,98339.41
2019-03-20T15:26:35.294Z,98350.27
2019-03-20T15:29:07.675Z,98351.36
2019-03-20T15:31:40.864Z,98352.50
2019-03-20T15:34:13.974Z,98357.28
2019-03-20T15:36:46.353Z,98361.80
2019-03-20T15:39:19.896Z,98358.96
2019-03-20T15:41:52.768Z,98362.69
2019-03-20T15:44:37.369Z,98367.34
2019-03-20T15:47:20.417Z,98373.17
2019-03-20T15:49:54.387Z,98368.76
2019-03-20T15:52:34.156Z,98372.44
2019-03-20T15:55:22.788Z,98372.44
2019-03-20T15:57:56.238Z,98378.66
2019-03-20T16:00:28.533Z,98373.94
2019-03-20T16:03:05.770Z,98381.21
2019-03-20T16:05:40.000Z,98381.21
2019-03-20T16:08:14.183Z,98377.57
2019-03-20T16:10:50.479Z,98377.57
2019-03-20T16:13:25.373Z,98384.34
2019-03-20T16:16:00.524Z,98388.82
2019-03-20T16:18:33.407Z,98395.00
2019-03-20T16:21:36.195Z,98405.16
2019-03-20T16:24:21.339Z,98408.23
2019-03-20T16:26:57.249Z,98408.23
2019-03-20T16:29:29.259Z,98421.28
2019-03-20T16:32:01.208Z,98422.13
2019-03-20T16:34:33.420Z,98427.44
2019-03-20T16:37:05.407Z,98423.73
2019-03-20T16:39:40.450Z,98442.96
2019-03-20T16:42:12.490Z,98446.40
2019-03-20T16:44:44.263Z,98441.77
2019-03-20T16:47:15.975Z,98447.47
2019-03-20T16:49:47.629Z,98437.59
2019-03-20T16:52:19.442Z,98443.97
2019-03-20T16:54:52.571Z,98445.00
2019-03-20T16:57:26.483Z,98451.77
2019-03-20T16:59:58.195Z,98451.77
2019-03-20T17:02:32.463Z,98460.56
2019-03-20T17:05:04.811Z,98465.11
2019-03-20T17:07:37.101Z,98464.42
2019-03-20T17:10:12.678Z,98469.20
2019-03-20T17:12:57.609Z,98467.69
2019-03-20T17:15:45.945Z,98466.20
2019-03-20T17:18:17.666Z,98465.45
2019-03-20T17:20:49.468Z,98470.06
2019-03-20T17:23:31.785Z,98477.67
2019-03-20T17:26:03.650Z,98475.03
2019-03-20T17:28:35.426Z,98475.97
2019-03-20T17:31:07.262Z,98471.09
2019-03-20T17:33:40.629Z,98481.26
2019-03-20T17:36:12.441Z,98479.16
2019-03-20T17:38:44.255Z,98477.27
2019-03-20T17:41:17.360Z,98476.34
2019-03-20T17:43:49.638Z,98483.71
2019-03-20T17:46:21.477Z,98481.66
2019-03-20T17:48:53.274Z,98488.47
2019-03-20T17:51:25.018Z,98491.89
2019-03-20T17:53:56.685Z,98496.12
2019-03-20T17:56:29.356Z,98502.21
2019-03-20T17:59:01.090Z,98509.55
2019-03-20T18:01:32.734Z,98506.60
2019-03-20T18:04:04.923Z,98510.79
2019-03-20T18:06:41.265Z,98517.80
2019-03-20T18:09:12.811Z,98517.76
2019-03-20T18:11:47.725Z,98525.48
2019-03-20T18:14:17.731Z,98525.34
2019-03-20T18:16:49.371Z,98527.52
2019-03-20T18:19:21.023Z,98531.78
2019-03-20T18:21:52.820Z,98536.53
2019-03-20T18:24:25.983Z,98536.73
2019-03-20T18:26:57.785Z,98542.34
2019-03-20T18:29:29.631Z,98538.88
2019-03-20T18:32:01.512Z,98532.81
2019-03-20T18:34:33.226Z,98539.88
2019-03-20T18:37:05.129Z,98550.59
2019-03-20T18:39:38.486Z,98553.09
2019-03-20T18:42:13.120Z,98558.59
2019-03-20T18:44:44.990Z,98559.78
2019-03-20T18:47:17.662Z,98563.58
2019-03-20T18:49:50.628Z,98564.23
2019-03-20T18:52:22.262Z,98566.15
2019-03-20T18:54:53.967Z,98565.02
2019-03-20T18:57:29.501Z,98565.09
2019-03-20T19:00:00.845Z,98570.44
2019-03-20T19:02:32.684Z,98577.72
2019-03-20T19:05:04.389Z,98571.45
2019-03-20T19:07:36.795Z,98570.48
2019-03-20T19:10:09.721Z,98574.55
2019-03-20T19:12:41.610Z,98572.48
2019-03-20T19:15:15.542Z,98576.09
2019-03-20T19:17:56.819Z,98574.05
2019-03-20T19:20:29.705Z,98575.81
2019-03-20T19:23:01.705Z,98575.99
2019-03-20T19:25:37.429Z,98581.47
2019-03-20T19:28:12.197Z,98586.13
2019-03-20T19:30:50.023Z,98589.32
2019-03-20T19:33:23.993Z,98590.61
2019-03-20T19:35:55.797Z,98588.52
2019-03-20T19:38:35.104Z,98588.17
2019-03-20T19:42:19.586Z,98590.20
2019-03-20T19:45:16.528Z,98594.41
2019-03-20T19:48:39.077Z,98597.59
2019-03-20T19:51:43.334Z,98599.08
2019-03-20T19:54:20.476Z,98599.58
2019-03-20T19:56:53.313Z,98606.45
2019-03-20T19:59:27.463Z,98596.50
2019-03-20T20:03:03.697Z,98604.42
2019-03-20T20:05:45.423Z,98603.91
2019-03-20T20:08:19.302Z,98611.66
2019-03-20T20:10:51.006Z,98607.10
2019-03-20T20:13:22.976Z,98609.75
2019-03-20T20:15:58.798Z,98607.84
2019-03-20T20:18:30.589Z,98604.35
2019-03-20T20:21:04.030Z,98615.42
2019-03-20T20:23:38.962Z,98612.34
2019-03-20T20:26:10.701Z,98611.05
2019-03-20T20:28:46.227Z,98614.44
2019-03-20T20:31:18.663Z,98605.75
2019-03-20T20:33:50.271Z,98609.84
2019-03-20T20:36:21.858Z,98613.75
2019-03-20T20:38:53.566Z,98611.94
2019-03-20T20:41:26.420Z,98613.45
2019-03-20T20:43:58.530Z,98615.30
2019-03-20T20:46:38.833Z,98613.04
2019-03-20T20:49:10.488Z,98610.91
2019-03-20T20:51:42.217Z,98616.97
2019-03-20T20:54:14.490Z,98611.48
2019-03-20T20:56:46.084Z,98615.17
2019-03-20T20:59:17.761Z,98611.17
2019-03-20T21:01:49.520Z,98607.97
2019-03-20T21:04:26.278Z,98617.75
2019-03-20T21:06:57.967Z,98621.36
2019-03-20T21:09:29.755Z,98618.92
2019-03-20T21:12:01.594Z,98626.50
2019-03-20T21:14:33.556Z,98617.23
2019-03-20T21:17:12.553Z,98610.09
2019-03-20T21:19:45.203Z,98618.14
2019-03-20T21:22:54.042Z,98618.00
2019-03-20T21:25:27.961Z,98619.92
2019-03-20T21:28:58.448Z,98628.71
2019-03-20T21:32:04.399Z,98633.63
2019-03-20T21:35:11.575Z,98635.66
2019-03-20T21:38:15.404Z,98636.44
2019-03-20T21:41:37.013Z,98641.70
2019-03-20T21:44:33.626Z,98641.95
2019-03-20T21:47:35.312Z,98642.55
2019-03-20T21:51:02.530Z,98649.61
2019-03-20T21:54:04.848Z,98647.20
2019-03-20T21:56:40.640Z,98650.52
2019-03-20T22:00:01.225Z,98651.20
2019-03-20T22:02:42.349Z,98654.34
2019-03-20T22:05:47.654Z,98663.05
2019-03-20T22:08:19.876Z,98665.42
2019-03-20T22:11:36.170Z,98655.50
2019-03-20T22:14:13.265Z,98661.56
2019-03-20T22:17:32.150Z,98659.27
2019-03-20T22:21:02.168Z,98660.95
2019-03-20T22:24:23.565Z,98660.75
2019-03-20T22:27:33.539Z,98664.98
2019-03-20T22:30:06.502Z,98656.89
2019-03-20T22:33:12.975Z,98663.15
2019-03-20T22:36:00.892Z,98657.56
2019-03-20T22:39:10.390Z,98655.42
2019-03-20T22:42:14.237Z,98657.80
2019-03-20T22:45:15.322Z,98649.59
2019-03-20T22:48:30.195Z,98653.15
2019-03-20T22:51:13.894Z,98654.38
2019-03-20T22:54:21.808Z,98653.34
2019-03-20T22:57:40.603Z,98654.20
2019-03-20T23:00:14.173Z,98656.67
2019-03-20T23:03:15.637Z,98656.39
2019-03-20T23:05:47.923Z,98661.13
2019-03-20T23:08:20.522Z,98670.77
2019-03-20T23:10:55.192Z,98666.73
2019-03-20T23:13:28.894Z,98668.86
2019-03-20T23:16:01.095Z,98665.67
2019-03-20T23:18:33.393Z,98667.33
2019-03-20T23:21:06.916Z,98668.75
2019-03-20T23:23:42.225Z,98668.62
2019-03-20T23:26:14.473Z,98663.89
2019-03-20T23:28:46.800Z,98651.83
2019-03-20T23:31:19.599Z,98658.55
2019-03-20T23:33:52.277Z,98662.20
2019-03-20T23:36:28.729Z,98651.48
2019-03-20T23:39:00.827Z,98656.32
2019-03-20T23:41:34.796Z,98656.32
2019-03-20T23:44:36.703Z,98650.14
2019-03-20T23:47:13.415Z,98663.95
2019-03-20T23:49:45.763Z,98657.56
2019-03-20T23:52:18.262Z,98665.48
2019-03-20T23:54:58.370Z,98671.82
2019-03-20T23:57:33.632Z,98661.05
